createdAt,value
2023-04-22T00:00:35.244Z,0.00
2023-04-22T00:01:35.243Z,0.00
2023-04-22T00:02:35.315Z,0.00
2023-04-22T00:03:35.471Z,0.00
2023-04-22T00:04:35.439Z,0.00
2023-04-22T00:05:35.341Z,0.00
2023-04-22T00:06:35.177Z,0.00
2023-04-22T00:07:35.170Z,0.00
2023-04-22T00:08:35.203Z,0.00
2023-04-22T00:09:35.199Z,0.00
2023-04-22T00:10:35.172Z,0.00
2023-04-22T00:11:35.134Z,0.00
2023-04-22T00:12:35.122Z,0.00
2023-04-22T00:13:35.107Z,0.00
2023-04-22T00:14:35.111Z,0.00
2023-04-22T00:15:35.098Z,0.00
2023-04-22T00:16:35.126Z,0.00
2023-04-22T00:17:35.079Z,0.00
2023-04-22T00:18:35.054Z,0.00
2023-04-22T00:19:35.209Z,0.00
2023-04-22T00:20:35.033Z,0.00
2023-04-22T00:21:35.022Z,0.00
2023-04-22T00:22:35.010Z,0.00
2023-04-22T00:23:35.053Z,0.00
2023-04-22T00:24:34.987Z,0.00
2023-04-22T00:25:42.858Z,0.00
2023-04-22T00:26:34.967Z,0.00
2023-04-22T00:27:34.955Z,0.00
2023-04-22T00:28:34.957Z,0.00
2023-04-22T00:29:34.958Z,0.00
2023-04-22T00:30:34.924Z,0.00
2023-04-22T00:31:34.971Z,0.00
2023-04-22T00:32:34.924Z,0.00
2023-04-22T00:33:34.898Z,0.00
2023-04-22T00:34:34.880Z,0.00
2023-04-22T00:35:34.872Z,0.00
2023-04-22T00:36:34.860Z,0.00
2023-04-22T00:37:34.861Z,0.00
2023-04-22T00:38:34.876Z,0.00
2023-04-22T00:39:34.834Z,0.00
2023-04-22T00:40:34.823Z,0.00
2023-04-22T00:41:34.823Z,0.00
2023-04-22T00:42:34.792Z,0.00
2023-04-22T00:43:34.817Z,0.00
2023-04-22T00:44:34.783Z,0.00
2023-04-22T00:45:34.805Z,0.00
2023-04-22T00:46:34.794Z,0.00
2023-04-22T00:47:34.771Z,0.00
2023-04-22T00:48:34.744Z,0.00
2023-04-22T00:49:34.708Z,0.00
2023-04-22T00:50:34.736Z,0.00
2023-04-22T00:51:34.692Z,0.00
2023-04-22T00:52:34.685Z,0.00
2023-04-22T00:53:34.688Z,0.00
2023-04-22T00:54:34.658Z,0.00
2023-04-22T00:55:34.646Z,0.00
2023-04-22T00:56:34.642Z,0.00
2023-04-22T00:57:34.649Z,0.00
2023-04-22T00:58:34.627Z,0.00
2023-04-22T00:59:34.822Z,0.00
2023-04-22T01:00:34.609Z,0.00
2023-04-22T01:01:34.921Z,0.00
2023-04-22T01:02:34.725Z,0.00
2023-04-22T01:03:34.682Z,0.00
2023-04-22T01:04:34.559Z,0.00
2023-04-22T01:05:34.554Z,0.00
2023-04-22T01:06:34.535Z,0.00
2023-04-22T01:07:34.517Z,0.00
2023-04-22T01:08:34.510Z,0.00
2023-04-22T01:09:34.502Z,0.00
2023-04-22T01:10:34.492Z,0.00
2023-04-22T01:11:34.485Z,0.00
2023-04-22T01:12:34.473Z,0.00
2023-04-22T01:13:34.467Z,0.00
2023-04-22T01:14:34.469Z,0.00
2023-04-22T01:15:34.439Z,0.00
2023-04-22T01:16:34.444Z,0.00
2023-04-22T01:17:34.445Z,0.00
2023-04-22T01:18:34.429Z,0.00
2023-04-22T01:19:34.386Z,0.00
2023-04-22T01:20:34.383Z,0.00
2023-04-22T01:21:34.376Z,0.00
2023-04-22T01:22:34.355Z,0.00
2023-04-22T01:23:34.479Z,0.00
2023-04-22T01:24:34.349Z,0.00
2023-04-22T01:25:34.320Z,0.00
2023-04-22T01:26:34.317Z,0.00
2023-04-22T01:27:34.296Z,0.00
2023-04-22T01:28:34.291Z,0.00
2023-04-22T01:29:34.319Z,0.00
2023-04-22T01:30:34.270Z,0.00
2023-04-22T01:31:34.286Z,0.00
2023-04-22T01:32:34.257Z,0.00
2023-04-22T01:33:34.237Z,0.00
2023-04-22T01:34:34.264Z,0.00
2023-04-22T01:35:34.217Z,0.00
2023-04-22T01:36:34.220Z,0.00
2023-04-22T01:37:34.190Z,0.00
2023-04-22T01:38:34.186Z,0.00
2023-04-22T01:39:34.181Z,0.00
2023-04-22T01:40:34.161Z,0.00
2023-04-22T01:41:34.148Z,0.00
2023-04-22T01:42:34.137Z,0.00
2023-04-22T01:43:34.140Z,0.00
2023-04-22T01:44:34.131Z,0.00
2023-04-22T01:45:34.212Z,0.00
2023-04-22T01:46:34.229Z,0.00
2023-04-22T01:47:34.091Z,0.00
2023-04-22T01:48:34.085Z,0.00
2023-04-22T01:49:34.063Z,0.00
2023-04-22T01:50:34.051Z,0.00
2023-04-22T01:51:34.037Z,0.00
2023-04-22T01:52:34.029Z,0.00
2023-04-22T01:53:34.035Z,0.00
2023-04-22T01:54:34.024Z,0.00
2023-04-22T01:55:34.003Z,0.00
2023-04-22T01:56:33.987Z,0.00
2023-04-22T01:57:33.974Z,0.00
2023-04-22T01:58:33.973Z,0.00
2023-04-22T01:59:33.960Z,0.00
2023-04-22T02:00:33.939Z,0.00
2023-04-22T02:01:33.999Z,0.00
2023-04-22T02:02:34.032Z,0.00
2023-04-22T02:03:33.968Z,0.00
2023-04-22T02:04:33.928Z,0.00
2023-04-22T02:05:33.900Z,0.00
2023-04-22T02:06:33.875Z,0.00
2023-04-22T02:07:33.861Z,0.00
2023-04-22T02:08:33.869Z,0.00
2023-04-22T02:09:33.862Z,0.00
2023-04-22T02:10:33.832Z,0.00
2023-04-22T02:11:33.820Z,0.00
2023-04-22T02:12:33.808Z,0.00
2023-04-22T02:13:33.799Z,0.00
2023-04-22T02:14:33.812Z,0.00
2023-04-22T02:15:33.815Z,0.00
2023-04-22T02:16:33.780Z,0.00
2023-04-22T02:17:33.770Z,0.00
2023-04-22T02:18:33.742Z,0.00
2023-04-22T02:19:33.778Z,0.00
2023-04-22T02:20:33.757Z,0.00
2023-04-22T02:21:33.714Z,0.00
2023-04-22T02:22:33.694Z,0.00
2023-04-22T02:23:33.683Z,0.00
2023-04-22T02:24:33.698Z,0.00
2023-04-22T02:25:33.666Z,0.00
2023-04-22T02:26:33.657Z,0.00
2023-04-22T02:27:33.642Z,0.00
2023-04-22T02:28:33.631Z,0.00
2023-04-22T02:29:33.626Z,0.00
2023-04-22T02:30:33.619Z,0.00
2023-04-22T02:31:33.621Z,0.00
2023-04-22T02:32:33.604Z,0.00
2023-04-22T02:33:33.637Z,0.00
2023-04-22T02:34:33.566Z,0.00
2023-04-22T02:35:33.551Z,0.00
2023-04-22T02:36:33.544Z,0.00
2023-04-22T02:37:33.529Z,0.00
2023-04-22T02:38:33.560Z,0.00
2023-04-22T02:39:33.513Z,0.00
2023-04-22T02:40:33.502Z,0.00
2023-04-22T02:41:33.497Z,0.00
2023-04-22T02:42:33.477Z,0.00
2023-04-22T02:43:33.481Z,0.00
2023-04-22T02:44:33.459Z,0.00
2023-04-22T02:45:33.444Z,0.00
2023-04-22T02:46:33.477Z,0.00
2023-04-22T02:47:33.459Z,0.00
2023-04-22T02:48:33.422Z,0.00
2023-04-22T02:49:33.417Z,0.00
2023-04-22T02:50:33.387Z,0.00
2023-04-22T02:51:33.383Z,0.00
2023-04-22T02:52:33.372Z,0.00
2023-04-22T02:53:33.451Z,0.00
2023-04-22T02:54:33.346Z,0.00
2023-04-22T02:55:33.340Z,0.00
2023-04-22T02:56:33.323Z,0.00
2023-04-22T02:57:33.311Z,0.00
2023-04-22T02:58:33.322Z,0.00
2023-04-22T02:59:33.296Z,0.00
2023-04-22T03:00:33.316Z,0.00
2023-04-22T03:01:33.360Z,0.00
2023-04-22T03:02:33.444Z,0.00
2023-04-22T03:03:33.366Z,0.00
2023-04-22T03:04:33.272Z,0.00
2023-04-22T03:05:33.249Z,0.00
2023-04-22T03:06:33.216Z,0.00
2023-04-22T03:07:33.203Z,0.00
2023-04-22T03:08:33.221Z,0.00
2023-04-22T03:09:33.191Z,0.00
2023-04-22T03:10:33.177Z,0.00
2023-04-22T03:11:33.158Z,0.00
2023-04-22T03:12:33.154Z,0.00
2023-04-22T03:13:33.166Z,0.00
2023-04-22T03:14:33.127Z,0.00
2023-04-22T03:15:33.120Z,0.00
2023-04-22T03:16:33.132Z,0.00
2023-04-22T03:17:33.126Z,0.00
2023-04-22T03:18:33.108Z,0.00
2023-04-22T03:19:33.074Z,4.00
2023-04-22T03:20:33.069Z,4.00
2023-04-22T03:21:33.092Z,0.00
2023-04-22T03:22:33.050Z,0.00
2023-04-22T03:23:33.046Z,4.00
2023-04-22T03:24:33.021Z,0.00
2023-04-22T03:25:33.008Z,4.00
2023-04-22T03:26:33.000Z,4.00
2023-04-22T03:27:33.010Z,4.00
2023-04-22T03:28:32.976Z,4.00
2023-04-22T03:29:32.969Z,8.00
2023-04-22T03:30:32.964Z,8.00
2023-04-22T03:31:32.979Z,8.00
2023-04-22T03:32:32.969Z,8.00
2023-04-22T03:33:32.938Z,8.00
2023-04-22T03:34:33.622Z,8.00
2023-04-22T03:35:32.973Z,12.00
2023-04-22T03:36:32.891Z,12.00
2023-04-22T03:37:32.909Z,16.00
2023-04-22T03:38:32.874Z,20.00
2023-04-22T03:39:32.856Z,20.00
2023-04-22T03:40:32.846Z,24.00
2023-04-22T03:41:32.837Z,28.00
2023-04-22T03:42:32.861Z,28.00
2023-04-22T03:43:32.813Z,32.00
2023-04-22T03:44:32.809Z,36.00
2023-04-22T03:45:32.989Z,44.00
2023-04-22T03:46:32.863Z,48.00
2023-04-22T03:47:32.827Z,52.00
2023-04-22T03:48:32.762Z,60.00
2023-04-22T03:49:32.763Z,68.00
2023-04-22T03:50:32.751Z,76.00
2023-04-22T03:51:32.727Z,84.00
2023-04-22T03:52:32.739Z,92.00
2023-04-22T03:53:32.726Z,100.00
2023-04-22T03:54:32.697Z,112.00
2023-04-22T03:55:32.684Z,120.00
2023-04-22T03:56:32.680Z,136.00
2023-04-22T03:57:32.700Z,144.00
2023-04-22T03:58:32.661Z,160.00
2023-04-22T03:59:32.640Z,168.00
2023-04-22T04:00:32.658Z,188.00
2023-04-22T04:01:32.642Z,200.00
2023-04-22T04:02:32.761Z,216.00
2023-04-22T04:03:33.000Z,232.00
2023-04-22T04:04:33.166Z,252.00
2023-04-22T04:05:32.660Z,268.00
2023-04-22T04:06:32.575Z,284.00
2023-04-22T04:07:32.618Z,304.00
2023-04-22T04:08:32.552Z,328.00
2023-04-22T04:09:32.564Z,348.00
2023-04-22T04:10:32.528Z,376.00
2023-04-22T04:11:32.512Z,396.00
2023-04-22T04:12:32.518Z,424.00
2023-04-22T04:13:32.651Z,444.00
2023-04-22T04:14:32.483Z,476.00
2023-04-22T04:15:32.527Z,504.00
2023-04-22T04:16:32.532Z,536.00
2023-04-22T04:17:32.504Z,580.00
2023-04-22T04:18:32.438Z,628.00
2023-04-22T04:19:32.428Z,668.00
2023-04-22T04:20:32.414Z,688.00
2023-04-22T04:21:32.401Z,732.00
2023-04-22T04:22:32.435Z,776.00
2023-04-22T04:23:32.380Z,824.00
2023-04-22T04:24:32.401Z,876.00
2023-04-22T04:25:32.386Z,912.00
2023-04-22T04:26:32.355Z,936.00
2023-04-22T04:27:32.353Z,968.00
2023-04-22T04:28:32.348Z,1012.00
2023-04-22T04:29:32.312Z,1064.00
2023-04-22T04:30:33.648Z,1128.00
2023-04-22T04:31:32.310Z,1180.00
2023-04-22T04:32:32.350Z,1224.00
2023-04-22T04:33:32.272Z,1268.00
2023-04-22T04:34:32.269Z,1320.00
2023-04-22T04:35:32.250Z,1348.00
2023-04-22T04:36:32.247Z,1368.00
2023-04-22T04:37:32.248Z,1408.00
2023-04-22T04:38:32.224Z,1460.00
2023-04-22T04:39:32.206Z,1524.00
2023-04-22T04:40:32.193Z,1584.00
2023-04-22T04:41:32.235Z,1660.00
2023-04-22T04:42:32.220Z,1720.00
2023-04-22T04:43:32.170Z,1764.00
2023-04-22T04:44:32.155Z,1812.00
2023-04-22T04:45:32.146Z,1892.00
2023-04-22T04:46:32.155Z,1952.00
2023-04-22T04:47:32.193Z,1996.00
2023-04-22T04:48:32.105Z,2000.00
2023-04-22T04:49:32.097Z,2076.00
2023-04-22T04:50:32.091Z,2148.00
2023-04-22T04:51:32.073Z,2172.00
2023-04-22T04:52:32.089Z,2200.00
2023-04-22T04:53:32.065Z,2280.00
2023-04-22T04:54:32.054Z,2384.00
2023-04-22T04:55:32.043Z,2468.00
2023-04-22T04:56:32.019Z,2516.00
2023-04-22T04:57:32.045Z,2532.00
2023-04-22T04:58:31.996Z,2552.00
2023-04-22T04:59:31.985Z,2628.00
2023-04-22T05:00:31.975Z,2724.00
2023-04-22T05:01:32.026Z,2792.00
2023-04-22T05:02:32.089Z,2884.00
2023-04-22T05:03:32.152Z,3028.00
2023-04-22T05:04:32.143Z,3136.00
2023-04-22T05:05:31.929Z,3176.00
2023-04-22T05:06:31.916Z,3224.00
2023-04-22T05:07:31.943Z,3284.00
2023-04-22T05:08:31.896Z,3216.00
2023-04-22T05:09:31.884Z,3124.00
2023-04-22T05:10:31.872Z,3044.00
2023-04-22T05:11:31.862Z,3064.00
2023-04-22T05:12:31.859Z,3212.00
2023-04-22T05:13:31.866Z,3512.00
2023-04-22T05:14:31.826Z,3660.00
2023-04-22T05:15:31.822Z,3680.00
2023-04-22T05:16:31.872Z,3688.00
2023-04-22T05:17:31.850Z,3740.00
2023-04-22T05:18:31.784Z,3724.00
2023-04-22T05:19:31.773Z,3828.00
2023-04-22T05:20:33.798Z,3952.00
2023-04-22T05:21:31.764Z,4020.00
2023-04-22T05:22:31.774Z,4132.00
2023-04-22T05:23:31.744Z,4196.00
2023-04-22T05:24:31.729Z,4284.00
2023-04-22T05:25:31.711Z,4320.00
2023-04-22T05:26:31.698Z,4200.00
2023-04-22T05:27:31.694Z,3972.00
2023-04-22T05:28:31.675Z,3904.00
2023-04-22T05:29:31.691Z,3992.00
2023-04-22T05:30:31.656Z,4244.00
2023-04-22T05:31:31.693Z,4444.00
2023-04-22T05:32:31.809Z,4508.00
2023-04-22T05:33:31.643Z,4624.00
2023-04-22T05:34:31.609Z,4740.00
2023-04-22T05:35:31.606Z,4908.00
2023-04-22T05:36:31.766Z,4980.00
2023-04-22T05:37:31.612Z,4968.00
2023-04-22T05:38:31.567Z,4988.00
2023-04-22T05:39:31.558Z,5020.00
2023-04-22T05:40:31.544Z,4984.00
2023-04-22T05:41:31.538Z,5096.00
2023-04-22T05:42:31.547Z,5276.00
2023-04-22T05:43:31.518Z,5372.00
2023-04-22T05:44:31.500Z,5512.00
2023-04-22T05:45:31.562Z,5644.00
2023-04-22T05:46:31.574Z,5640.00
2023-04-22T05:47:31.491Z,5608.00
2023-04-22T05:48:31.460Z,5604.00
2023-04-22T05:49:31.448Z,5636.00
2023-04-22T05:50:31.440Z,5672.00
2023-04-22T05:51:31.422Z,5724.00
2023-04-22T05:52:31.468Z,5740.00
2023-04-22T05:53:31.411Z,5508.00
2023-04-22T05:54:31.397Z,5152.00
2023-04-22T05:55:31.381Z,5060.00
2023-04-22T05:56:31.371Z,5364.00
2023-04-22T05:57:31.377Z,5812.00
2023-04-22T05:58:31.351Z,5924.00
2023-04-22T05:59:31.339Z,6020.00
2023-04-22T06:00:31.324Z,6104.00
2023-04-22T06:01:31.335Z,5864.00
2023-04-22T06:02:31.541Z,5496.00
2023-04-22T06:03:31.515Z,5456.00
2023-04-22T06:04:34.506Z,5504.00
2023-04-22T06:05:32.320Z,5580.00
2023-04-22T06:06:31.286Z,5768.00
2023-04-22T06:07:31.272Z,6128.00
2023-04-22T06:08:31.246Z,6136.00
2023-04-22T06:09:31.234Z,6564.00
2023-04-22T06:10:31.222Z,7256.00
2023-04-22T06:11:31.240Z,8640.00
2023-04-22T06:12:31.223Z,9504.00
2023-04-22T06:13:31.195Z,10228.00
2023-04-22T06:14:31.178Z,10144.00
2023-04-22T06:15:31.265Z,10976.00
2023-04-22T06:16:31.167Z,11976.00
2023-04-22T06:17:31.170Z,14176.00
2023-04-22T06:18:31.133Z,15680.00
2023-04-22T06:19:31.121Z,14432.00
2023-04-22T06:20:31.107Z,13824.00
2023-04-22T06:21:31.098Z,13888.00
2023-04-22T06:22:31.117Z,13216.00
2023-04-22T06:23:31.084Z,12896.00
2023-04-22T06:24:31.073Z,10636.00
2023-04-22T06:25:31.944Z,7672.00
2023-04-22T06:26:31.047Z,8980.00
2023-04-22T06:27:31.044Z,10164.00
2023-04-22T06:28:31.021Z,10284.00
2023-04-22T06:29:31.016Z,9856.00
2023-04-22T06:30:30.997Z,9540.00
2023-04-22T06:31:31.029Z,9508.00
2023-04-22T06:32:31.156Z,9396.00
2023-04-22T06:33:30.986Z,9780.00
2023-04-22T06:34:30.957Z,10120.00
2023-04-22T06:35:30.960Z,10156.00
2023-04-22T06:36:31.001Z,10324.00
2023-04-22T06:37:30.946Z,10212.00
2023-04-22T06:38:30.922Z,9772.00
2023-04-22T06:39:30.913Z,9896.00
2023-04-22T06:40:30.927Z,10268.00
2023-04-22T06:41:30.884Z,10548.00
2023-04-22T06:42:30.906Z,10980.00
2023-04-22T06:43:30.865Z,11480.00
2023-04-22T06:44:30.853Z,11272.00
2023-04-22T06:45:30.841Z,10000.00
2023-04-22T06:46:30.877Z,10584.00
2023-04-22T06:47:30.830Z,12512.00
2023-04-22T06:48:30.827Z,12504.00
2023-04-22T06:49:30.814Z,12336.00
2023-04-22T06:50:30.797Z,12612.00
2023-04-22T06:51:30.807Z,12456.00
2023-04-22T06:52:30.768Z,12736.00
2023-04-22T06:53:30.760Z,12540.00
2023-04-22T06:54:30.749Z,12416.00
2023-04-22T06:55:30.732Z,12344.00
2023-04-22T06:56:30.736Z,12092.00
2023-04-22T06:57:30.723Z,12876.00
2023-04-22T06:58:30.699Z,13604.00
2023-04-22T06:59:30.688Z,14092.00
2023-04-22T07:00:30.675Z,14312.00
2023-04-22T07:01:30.798Z,15004.00
2023-04-22T07:02:30.746Z,14964.00
2023-04-22T07:03:30.709Z,14084.00
2023-04-22T07:04:30.654Z,14604.00
2023-04-22T07:05:30.641Z,15552.00
2023-04-22T07:06:30.625Z,16192.00
2023-04-22T07:07:30.602Z,17088.00
2023-04-22T07:08:30.590Z,17568.00
2023-04-22T07:09:30.587Z,16480.00
2023-04-22T07:10:30.571Z,22400.00
2023-04-22T07:11:30.609Z,26944.00
2023-04-22T07:12:30.551Z,29472.00
2023-04-22T07:13:30.538Z,29088.00
2023-04-22T07:14:30.528Z,28832.00
2023-04-22T07:15:30.516Z,28416.00
2023-04-22T07:16:30.574Z,26080.00
2023-04-22T07:17:30.507Z,25152.00
2023-04-22T07:18:30.478Z,24992.00
2023-04-22T07:19:32.503Z,25248.00
2023-04-22T07:20:30.462Z,24704.00
2023-04-22T07:21:30.501Z,23872.00
2023-04-22T07:22:30.447Z,23264.00
2023-04-22T07:23:30.541Z,23168.00
2023-04-22T07:24:30.420Z,22528.00
2023-04-22T07:25:30.409Z,22464.00
2023-04-22T07:26:30.412Z,22112.00
2023-04-22T07:27:30.414Z,21504.00
2023-04-22T07:28:30.380Z,22048.00
2023-04-22T07:29:30.368Z,21696.00
2023-04-22T07:30:30.373Z,22208.00
2023-04-22T07:31:30.375Z,22688.00
2023-04-22T07:32:30.355Z,23168.00
2023-04-22T07:33:30.331Z,23520.00
2023-04-22T07:34:30.310Z,22848.00
2023-04-22T07:35:30.371Z,23040.00
2023-04-22T07:36:30.546Z,23264.00
2023-04-22T07:37:30.324Z,24256.00
2023-04-22T07:38:30.274Z,24576.00
2023-04-22T07:39:30.258Z,24864.00
2023-04-22T07:40:30.250Z,24544.00
2023-04-22T07:41:30.275Z,24416.00
2023-04-22T07:42:30.226Z,25248.00
2023-04-22T07:43:30.220Z,26880.00
2023-04-22T07:44:30.227Z,27584.00
2023-04-22T07:45:30.271Z,29120.00
2023-04-22T07:46:30.199Z,30560.00
2023-04-22T07:47:30.213Z,30304.00
2023-04-22T07:48:30.179Z,30720.00
2023-04-22T07:49:30.162Z,29248.00
2023-04-22T07:50:30.168Z,27040.00
2023-04-22T07:51:30.139Z,28096.00
2023-04-22T07:52:30.120Z,28704.00
2023-04-22T07:53:30.154Z,29344.00
2023-04-22T07:54:30.098Z,31424.00
2023-04-22T07:55:30.091Z,32064.00
2023-04-22T07:56:30.090Z,33248.00
2023-04-22T07:57:30.070Z,35168.00
2023-04-22T07:58:30.057Z,34048.00
2023-04-22T07:59:30.049Z,32608.00
2023-04-22T08:00:30.081Z,32544.00
2023-04-22T08:01:30.084Z,33504.00
2023-04-22T08:02:30.140Z,34528.00
2023-04-22T08:03:30.141Z,36160.00
2023-04-22T08:04:30.176Z,37088.00
2023-04-22T08:05:29.993Z,37856.00
2023-04-22T08:06:30.025Z,38912.00
2023-04-22T08:07:33.050Z,39008.00
2023-04-22T08:08:29.970Z,39264.00
2023-04-22T08:09:29.973Z,38848.00
2023-04-22T08:10:29.935Z,38624.00
2023-04-22T08:11:29.943Z,38592.00
2023-04-22T08:12:29.916Z,38848.00
2023-04-22T08:13:29.908Z,38016.00
2023-04-22T08:14:29.921Z,38560.00
2023-04-22T08:15:29.893Z,37920.00
2023-04-22T08:16:29.933Z,36800.00
2023-04-22T08:17:29.921Z,38784.00
2023-04-22T08:18:29.855Z,40384.00
2023-04-22T08:19:29.846Z,41312.00
2023-04-22T08:20:29.835Z,41920.00
2023-04-22T08:21:29.844Z,39520.00
2023-04-22T08:22:29.822Z,37952.00
2023-04-22T08:23:29.809Z,39136.00
2023-04-22T08:24:29.795Z,39520.00
2023-04-22T08:25:29.810Z,39136.00
2023-04-22T08:26:29.795Z,39712.00
2023-04-22T08:27:29.766Z,39520.00
2023-04-22T08:28:29.758Z,39456.00
2023-04-22T08:29:29.749Z,39040.00
2023-04-22T08:30:29.733Z,37472.00
2023-04-22T08:31:29.777Z,38240.00
2023-04-22T08:32:29.798Z,39936.00
2023-04-22T08:33:29.707Z,39808.00
2023-04-22T08:34:29.694Z,39264.00
2023-04-22T08:35:29.686Z,39360.00
2023-04-22T08:36:29.690Z,39616.00
2023-04-22T08:37:29.685Z,40096.00
2023-04-22T08:38:29.652Z,39648.00
2023-04-22T08:39:29.669Z,39520.00
2023-04-22T08:40:29.626Z,41600.00
2023-04-22T08:41:29.651Z,43424.00
2023-04-22T08:42:29.619Z,44224.00
2023-04-22T08:43:29.601Z,43712.00
2023-04-22T08:44:29.598Z,43328.00
2023-04-22T08:45:29.578Z,42560.00
2023-04-22T08:46:29.608Z,41920.00
2023-04-22T08:47:29.579Z,41984.00
2023-04-22T08:48:29.556Z,39872.00
2023-04-22T08:49:29.542Z,37472.00
2023-04-22T08:50:29.523Z,37952.00
2023-04-22T08:51:29.528Z,39168.00
2023-04-22T08:52:29.505Z,40608.00
2023-04-22T08:53:29.503Z,40256.00
2023-04-22T08:54:29.506Z,39360.00
2023-04-22T08:55:29.480Z,39232.00
2023-04-22T08:56:29.481Z,39168.00
2023-04-22T08:57:29.473Z,38016.00
2023-04-22T08:58:29.446Z,39392.00
2023-04-22T08:59:29.435Z,40800.00
2023-04-22T09:00:29.426Z,40096.00
2023-04-22T09:01:29.539Z,40704.00
2023-04-22T09:02:29.449Z,42528.00
2023-04-22T09:03:29.520Z,43424.00
2023-04-22T09:04:29.457Z,45216.00
2023-04-22T09:05:29.383Z,45280.00
2023-04-22T09:06:29.389Z,44416.00
2023-04-22T09:07:29.358Z,42464.00
2023-04-22T09:08:29.356Z,41184.00
2023-04-22T09:09:29.328Z,41664.00
2023-04-22T09:10:29.328Z,42848.00
2023-04-22T09:11:29.324Z,44448.00
2023-04-22T09:12:29.311Z,44160.00
2023-04-22T09:13:29.321Z,43008.00
2023-04-22T09:14:29.317Z,43424.00
2023-04-22T09:15:29.269Z,46112.00
2023-04-22T09:16:29.298Z,48320.00
2023-04-22T09:17:29.273Z,48352.00
2023-04-22T09:18:29.245Z,47840.00
2023-04-22T09:19:29.228Z,46528.00
2023-04-22T09:20:29.236Z,45824.00
2023-04-22T09:21:29.209Z,43840.00
2023-04-22T09:22:29.199Z,41344.00
2023-04-22T09:23:29.194Z,41120.00
2023-04-22T09:24:29.180Z,43328.00
2023-04-22T09:25:29.201Z,45952.00
2023-04-22T09:26:29.155Z,47040.00
2023-04-22T09:27:29.145Z,46976.00
2023-04-22T09:28:29.137Z,47040.00
2023-04-22T09:29:29.139Z,47072.00
2023-04-22T09:30:29.139Z,46976.00
2023-04-22T09:31:29.137Z,47456.00
2023-04-22T09:32:29.131Z,48288.00
2023-04-22T09:33:29.127Z,47744.00
2023-04-22T09:34:29.076Z,46592.00
2023-04-22T09:35:29.091Z,44480.00
2023-04-22T09:36:29.057Z,42464.00
2023-04-22T09:37:36.023Z,42400.00
2023-04-22T09:38:30.030Z,44512.00
2023-04-22T09:39:29.034Z,47200.00
2023-04-22T09:40:29.012Z,48064.00
2023-04-22T09:41:29.026Z,47360.00
2023-04-22T09:42:28.993Z,47776.00
2023-04-22T09:43:28.980Z,48864.00
2023-04-22T09:44:28.972Z,50080.00
2023-04-22T09:45:28.980Z,48224.00
2023-04-22T09:46:29.145Z,45792.00
2023-04-22T09:47:28.964Z,43552.00
2023-04-22T09:48:28.934Z,43520.00
2023-04-22T09:49:28.935Z,45536.00
2023-04-22T09:50:28.944Z,46432.00
2023-04-22T09:51:28.918Z,48704.00
2023-04-22T09:52:28.895Z,52448.00
2023-04-22T09:53:28.876Z,56256.00
2023-04-22T09:54:28.869Z,56800.00
2023-04-22T09:55:28.877Z,55808.00
2023-04-22T09:56:28.906Z,53184.00
2023-04-22T09:57:28.837Z,52000.00
2023-04-22T09:58:28.832Z,51648.00
2023-04-22T09:59:28.842Z,53472.00
2023-04-22T10:00:28.824Z,54080.00
2023-04-22T10:01:28.855Z,56864.00
2023-04-22T10:02:28.924Z,57760.00
2023-04-22T10:03:28.789Z,56864.00
2023-04-22T10:04:28.844Z,56032.00
2023-04-22T10:05:28.809Z,56736.00
2023-04-22T10:06:28.752Z,57376.00
2023-04-22T10:07:28.765Z,58240.00
2023-04-22T10:08:28.725Z,60640.00
2023-04-22T10:09:28.714Z,63648.00
2023-04-22T10:10:28.730Z,64672.00
2023-04-22T10:11:28.696Z,64224.00
2023-04-22T10:12:35.269Z,64928.00
2023-04-22T10:13:29.676Z,65504.00
2023-04-22T10:14:28.703Z,67616.00
2023-04-22T10:15:28.672Z,67840.00
2023-04-22T10:16:28.675Z,67808.00
2023-04-22T10:17:28.691Z,66080.00
2023-04-22T10:18:28.633Z,63840.00
2023-04-22T10:19:28.611Z,62848.00
2023-04-22T10:20:28.615Z,62944.00
2023-04-22T10:21:28.592Z,63872.00
2023-04-22T10:22:28.591Z,64448.00
2023-04-22T10:23:28.622Z,64768.00
2023-04-22T10:24:28.562Z,62560.00
2023-04-22T10:25:28.566Z,58592.00
2023-04-22T10:26:28.542Z,32288.00
2023-04-22T10:27:28.538Z,7856.00
2023-04-22T10:28:28.520Z,6924.00
2023-04-22T10:29:28.513Z,6656.00
2023-04-22T10:30:28.512Z,6616.00
2023-04-22T10:31:28.518Z,6444.00
2023-04-22T10:32:28.503Z,6404.00
2023-04-22T10:33:28.636Z,6296.00
2023-04-22T10:34:28.466Z,6208.00
2023-04-22T10:35:28.467Z,6088.00
2023-04-22T10:36:28.436Z,6040.00
2023-04-22T10:37:28.428Z,6004.00
2023-04-22T10:38:28.416Z,5980.00
2023-04-22T10:39:28.427Z,5952.00
2023-04-22T10:40:28.432Z,5960.00
2023-04-22T10:41:28.385Z,5932.00
2023-04-22T10:42:28.389Z,5896.00
2023-04-22T10:43:28.361Z,5912.00
2023-04-22T10:44:28.358Z,5876.00
2023-04-22T10:45:28.370Z,5860.00
2023-04-22T10:46:28.395Z,5832.00
2023-04-22T10:47:28.364Z,5800.00
2023-04-22T10:48:28.321Z,5824.00
2023-04-22T10:49:28.316Z,5780.00
2023-04-22T10:50:28.300Z,5768.00
2023-04-22T10:51:28.276Z,5740.00
2023-04-22T10:52:28.272Z,5692.00
2023-04-22T10:53:28.263Z,5692.00
2023-04-22T10:54:31.403Z,5588.00
2023-04-22T10:55:28.250Z,5608.00
2023-04-22T10:56:28.225Z,5560.00
2023-04-22T10:57:28.257Z,5532.00
2023-04-22T10:58:28.203Z,5444.00
2023-04-22T10:59:28.224Z,5440.00
2023-04-22T11:00:33.085Z,5468.00
2023-04-22T11:01:29.219Z,5432.00
2023-04-22T11:02:28.476Z,5400.00
2023-04-22T11:03:28.778Z,5444.00
2023-04-22T11:04:28.164Z,5488.00
2023-04-22T11:05:28.154Z,5432.00
2023-04-22T11:06:28.138Z,5424.00
2023-04-22T11:07:28.103Z,5420.00
2023-04-22T11:08:28.096Z,5372.00
2023-04-22T11:09:28.094Z,5408.00
2023-04-22T11:10:28.092Z,5324.00
2023-04-22T11:11:28.060Z,5332.00
2023-04-22T11:12:28.054Z,5392.00
2023-04-22T11:13:28.043Z,5296.00
2023-04-22T11:14:28.030Z,5256.00
2023-04-22T11:15:28.043Z,5308.00
2023-04-22T11:16:28.105Z,5240.00
2023-04-22T11:17:28.041Z,5268.00
2023-04-22T11:18:27.988Z,5216.00
2023-04-22T11:19:27.975Z,5216.00
2023-04-22T11:20:27.969Z,5280.00
2023-04-22T11:21:27.988Z,5236.00
2023-04-22T11:22:27.958Z,5168.00
2023-04-22T11:23:27.956Z,5132.00
2023-04-22T11:24:27.923Z,5140.00
2023-04-22T11:25:27.932Z,5108.00
2023-04-22T11:26:27.901Z,5092.00
2023-04-22T11:27:27.902Z,5076.00
2023-04-22T11:28:27.886Z,5040.00
2023-04-22T11:29:27.871Z,5060.00
2023-04-22T11:30:27.883Z,4992.00
2023-04-22T11:31:27.876Z,4980.00
2023-04-22T11:32:27.878Z,4960.00
2023-04-22T11:33:27.828Z,4924.00
2023-04-22T11:34:27.818Z,4856.00
2023-04-22T11:35:27.830Z,4916.00
2023-04-22T11:36:27.821Z,4876.00
2023-04-22T11:37:27.805Z,4924.00
2023-04-22T11:38:27.779Z,4816.00
2023-04-22T11:39:27.774Z,4852.00
2023-04-22T11:40:30.608Z,4840.00
2023-04-22T11:41:27.768Z,4800.00
2023-04-22T11:42:27.736Z,4784.00
2023-04-22T11:43:27.730Z,4668.00
2023-04-22T11:44:27.720Z,4684.00
2023-04-22T11:45:27.907Z,4684.00
2023-04-22T11:46:27.768Z,4636.00
2023-04-22T11:47:27.700Z,4600.00
2023-04-22T11:48:27.719Z,4600.00
2023-04-22T11:49:27.681Z,4564.00
2023-04-22T11:50:27.665Z,4548.00
2023-04-22T11:51:27.643Z,4548.00
2023-04-22T11:52:27.632Z,4544.00
2023-04-22T11:53:27.636Z,4524.00
2023-04-22T11:54:27.625Z,4524.00
2023-04-22T11:55:27.599Z,4472.00
2023-04-22T11:56:27.588Z,4440.00
2023-04-22T11:57:27.588Z,4408.00
2023-04-22T11:58:27.565Z,4424.00
2023-04-22T11:59:27.576Z,4384.00
2023-04-22T12:00:27.545Z,4428.00
2023-04-22T12:01:27.549Z,4420.00
2023-04-22T12:02:27.776Z,4348.00
2023-04-22T12:03:27.769Z,4388.00
2023-04-22T12:04:27.520Z,4388.00
2023-04-22T12:05:27.523Z,4400.00
2023-04-22T12:06:27.481Z,4356.00
2023-04-22T12:07:27.470Z,4360.00
2023-04-22T12:08:27.461Z,4320.00
2023-04-22T12:09:27.483Z,4336.00
2023-04-22T12:10:27.462Z,4336.00
2023-04-22T12:11:27.425Z,4292.00
2023-04-22T12:12:27.418Z,4252.00
2023-04-22T12:13:27.503Z,4208.00
2023-04-22T12:14:27.396Z,4232.00
2023-04-22T12:15:27.460Z,4216.00
2023-04-22T12:16:27.407Z,4328.00
2023-04-22T12:17:27.409Z,4160.00
2023-04-22T12:18:27.384Z,4120.00
2023-04-22T12:19:27.342Z,4156.00
2023-04-22T12:20:27.351Z,4136.00